createdAt,value
2017-08-19T00:00:03.716Z,1006.88
2017-08-19T00:00:58.743Z,1006.92
2017-08-19T00:01:58.702Z,1006.90
2017-08-19T00:02:53.807Z,1006.93
2017-08-19T00:03:48.842Z,1006.91
2017-08-19T00:04:48.872Z,1006.88
2017-08-19T00:05:43.882Z,1006.93
2017-08-19T00:06:37.879Z,1006.91
2017-08-19T00:07:38.018Z,1006.90
2017-08-19T00:08:31.964Z,1006.96
2017-08-19T00:09:26.019Z,1006.97
2017-08-19T00:10:20.058Z,1006.98
2017-08-19T00:11:14.105Z,1006.98
2017-08-19T00:12:03.195Z,1006.97
2017-08-19T00:12:51.203Z,1006.98
2017-08-19T00:13:40.216Z,1006.95
2017-08-19T00:14:34.169Z,1006.97
2017-08-19T00:15:29.254Z,1006.97
2017-08-19T00:16:18.314Z,1006.96
2017-08-19T00:17:12.413Z,1006.98
2017-08-19T00:18:06.518Z,1006.98
2017-08-19T00:19:06.449Z,1006.99
2017-08-19T00:20:01.546Z,1007.01
2017-08-19T00:20:55.426Z,1007.00
2017-08-19T00:21:49.629Z,1007.00
2017-08-19T00:22:49.665Z,1007.02
2017-08-19T00:23:44.578Z,1006.97
2017-08-19T00:24:44.583Z,1007.03
2017-08-19T00:25:39.754Z,1006.99
2017-08-19T00:26:34.707Z,1007.02
2017-08-19T00:27:34.806Z,1006.96
2017-08-19T00:28:29.936Z,1007.03
2017-08-19T00:29:24.936Z,1007.07
2017-08-19T00:30:25.935Z,1007.08
2017-08-19T00:31:26.007Z,1007.05
2017-08-19T00:32:25.905Z,1007.05
2017-08-19T00:33:20.933Z,1007.07
2017-08-19T00:34:14.886Z,1007.09
2017-08-19T00:35:16.017Z,1007.09
2017-08-19T00:36:16.104Z,1007.12
2017-08-19T00:37:16.049Z,1007.12
2017-08-19T00:38:11.026Z,1007.11
2017-08-19T00:39:05.202Z,1007.10
2017-08-19T00:40:06.150Z,1007.15
2017-08-19T00:41:06.150Z,1007.18
2017-08-19T00:42:01.186Z,1007.10
2017-08-19T00:43:01.306Z,1007.17
2017-08-19T00:43:50.341Z,1007.19
2017-08-19T00:44:39.349Z,1007.21
2017-08-19T00:45:28.398Z,1007.21
2017-08-19T00:46:16.214Z,1007.24
2017-08-19T00:47:05.064Z,1007.27
2017-08-19T00:48:00.517Z,1007.24
2017-08-19T00:48:49.539Z,1007.27
2017-08-19T00:49:38.237Z,1007.30
2017-08-19T00:50:38.211Z,1007.31
2017-08-19T00:51:26.257Z,1007.31
2017-08-19T00:52:14.416Z,1007.31
2017-08-19T00:53:08.908Z,1007.34
2017-08-19T00:54:08.741Z,1007.34
2017-08-19T00:54:57.685Z,1007.35
2017-08-19T00:55:45.551Z,1007.36
2017-08-19T00:56:34.994Z,1007.35
2017-08-19T00:57:29.087Z,1007.33
2017-08-19T00:58:29.131Z,1007.35
2017-08-19T00:59:22.672Z,1007.35
2017-08-19T01:00:22.965Z,1007.34
2017-08-19T01:01:18.072Z,1007.38
2017-08-19T01:02:12.678Z,1007.36
2017-08-19T01:03:13.167Z,1007.41
2017-08-19T01:04:07.736Z,1007.38
2017-08-19T01:05:02.998Z,1007.40
2017-08-19T01:06:03.971Z,1007.41
2017-08-19T01:07:03.927Z,1007.43
2017-08-19T01:08:04.344Z,1007.40
2017-08-19T01:08:59.060Z,1007.40
2017-08-19T01:09:53.986Z,1007.43
2017-08-19T01:10:48.139Z,1007.42
2017-08-19T01:11:43.064Z,1007.42
2017-08-19T01:12:38.435Z,1007.45
2017-08-19T01:13:33.541Z,1007.41
2017-08-19T01:14:27.206Z,1007.39
2017-08-19T01:15:22.158Z,1007.42
2017-08-19T01:16:16.502Z,1007.42
2017-08-19T01:17:16.228Z,1007.39
2017-08-19T01:18:10.719Z,1007.37
2017-08-19T01:19:10.545Z,1007.40
2017-08-19T01:20:04.371Z,1007.42
2017-08-19T01:20:59.699Z,1007.45
2017-08-19T01:21:54.650Z,1007.39
2017-08-19T01:22:54.906Z,1007.43
2017-08-19T01:23:49.959Z,1007.43
2017-08-19T01:24:45.060Z,1007.47
2017-08-19T01:25:45.546Z,1007.44
2017-08-19T01:26:46.108Z,1007.49
2017-08-19T01:27:46.057Z,1007.49
2017-08-19T01:28:40.629Z,1007.52
2017-08-19T01:29:35.092Z,1007.54
2017-08-19T01:30:35.978Z,1007.56
2017-08-19T01:31:30.049Z,1007.59
2017-08-19T01:32:17.876Z,1007.55
2017-08-19T01:33:06.385Z,1007.55
2017-08-19T01:33:54.856Z,1007.54
2017-08-19T01:34:43.373Z,1007.57
2017-08-19T01:35:30.966Z,1007.53
2017-08-19T01:36:18.991Z,1007.55
2017-08-19T01:37:20.062Z,1007.53
2017-08-19T01:38:20.247Z,1007.54
2017-08-19T01:39:15.075Z,1007.55
2017-08-19T01:40:10.201Z,1007.55
2017-08-19T01:41:10.180Z,1007.52
2017-08-19T01:42:05.339Z,1007.52
2017-08-19T01:43:06.696Z,1007.52
2017-08-19T01:44:07.594Z,1007.51
2017-08-19T01:44:55.377Z,1007.49
2017-08-19T01:45:43.810Z,1007.49
2017-08-19T01:46:37.803Z,1007.51
2017-08-19T01:47:37.886Z,1007.49
2017-08-19T01:48:31.842Z,1007.49
2017-08-19T01:49:37.942Z,1007.48
2017-08-19T01:50:31.498Z,1007.47
2017-08-19T01:51:21.006Z,1007.51
2017-08-19T01:52:09.904Z,1007.49
2017-08-19T01:52:58.089Z,1007.52
2017-08-19T01:53:57.663Z,1007.46
2017-08-19T01:54:52.108Z,1007.51
2017-08-19T01:55:52.091Z,1007.52
2017-08-19T01:56:41.192Z,1007.52
2017-08-19T01:57:29.284Z,1007.56
2017-08-19T01:58:28.797Z,1007.51
2017-08-19T01:59:23.289Z,1007.53
2017-08-19T02:00:18.251Z,1007.54
2017-08-19T02:01:12.403Z,1007.51
2017-08-19T02:02:06.986Z,1007.52
2017-08-19T02:02:56.481Z,1007.53
2017-08-19T02:03:45.059Z,1007.51
2017-08-19T02:04:46.354Z,1007.58
2017-08-19T02:05:41.380Z,1007.54
2017-08-19T02:06:29.130Z,1007.55
2017-08-19T02:07:18.226Z,1007.52
2017-08-19T02:08:06.641Z,1007.49
2017-08-19T02:08:54.303Z,1007.53
2017-08-19T02:09:48.364Z,1007.49
2017-08-19T02:10:48.458Z,1007.52
2017-08-19T02:11:54.804Z,1007.49
2017-08-19T02:12:49.789Z,1007.48
2017-08-19T02:13:49.653Z,1007.45
2017-08-19T02:14:44.965Z,1007.44
2017-08-19T02:15:39.809Z,1007.47
2017-08-19T02:16:39.675Z,1007.46
2017-08-19T02:17:33.912Z,1007.45
2017-08-19T02:18:22.867Z,1007.47
2017-08-19T02:19:10.843Z,1007.45
2017-08-19T02:20:04.874Z,1007.48
2017-08-19T02:20:58.703Z,1007.46
2017-08-19T02:21:47.115Z,1007.42
2017-08-19T02:22:35.326Z,1007.43
2017-08-19T02:23:22.918Z,1007.45
2017-08-19T02:24:11.826Z,1007.41
2017-08-19T02:25:00.410Z,1007.42
2017-08-19T02:25:47.990Z,1007.43
2017-08-19T02:26:36.376Z,1007.44
2017-08-19T02:27:25.476Z,1007.41
2017-08-19T02:28:19.453Z,1007.41
2017-08-19T02:29:07.211Z,1007.42
2017-08-19T02:29:55.098Z,1007.44
2017-08-19T02:30:43.604Z,1007.49
2017-08-19T02:31:37.230Z,1007.42
2017-08-19T02:32:31.801Z,1007.49
2017-08-19T02:33:20.626Z,1007.44
2017-08-19T02:34:08.378Z,1007.43
2017-08-19T02:34:56.832Z,1007.44
2017-08-19T02:35:44.876Z,1007.44
2017-08-19T02:36:33.533Z,1007.45
2017-08-19T02:37:21.944Z,1007.45
2017-08-19T02:38:10.008Z,1007.41
2017-08-19T02:38:58.944Z,1007.39
2017-08-19T02:39:46.632Z,1007.45
2017-08-19T02:40:36.108Z,1007.46
2017-08-19T02:41:31.146Z,1007.44
2017-08-19T02:42:31.128Z,1007.42
2017-08-19T02:43:31.207Z,1007.40
2017-08-19T02:44:19.879Z,1007.42
2017-08-19T02:45:08.929Z,1007.39
2017-08-19T02:45:57.367Z,1007.38
2017-08-19T02:46:46.307Z,1007.42
2017-08-19T02:47:34.490Z,1007.40
2017-08-19T02:48:28.038Z,1007.42
2017-08-19T02:49:22.460Z,1007.43
2017-08-19T02:50:10.572Z,1007.45
2017-08-19T02:50:58.192Z,1007.43
2017-08-19T02:51:46.534Z,1007.43
2017-08-19T02:52:41.727Z,1007.47
2017-08-19T02:53:35.680Z,1007.46
2017-08-19T02:54:41.671Z,1007.42
2017-08-19T02:55:36.743Z,1007.44
2017-08-19T02:56:30.397Z,1007.44
2017-08-19T02:57:24.442Z,1007.47
2017-08-19T02:58:18.641Z,1007.43
2017-08-19T02:59:12.375Z,1007.46
2017-08-19T03:00:13.694Z,1007.48
2017-08-19T03:01:08.480Z,1007.51
2017-08-19T03:02:02.952Z,1007.50
2017-08-19T03:03:02.987Z,1007.51
2017-08-19T03:03:58.031Z,1007.51
2017-08-19T03:04:52.039Z,1007.50
2017-08-19T03:05:51.716Z,1007.50
2017-08-19T03:06:52.181Z,1007.47
2017-08-19T03:07:47.271Z,1007.47
2017-08-19T03:08:41.168Z,1007.44
2017-08-19T03:09:36.242Z,1007.44
2017-08-19T03:10:24.287Z,1007.46
2017-08-19T03:11:13.402Z,1007.46
2017-08-19T03:12:08.331Z,1007.47
2017-08-19T03:12:57.343Z,1007.50
2017-08-19T03:13:52.437Z,1007.47
2017-08-19T03:14:40.060Z,1007.49
2017-08-19T03:15:40.100Z,1007.48
2017-08-19T03:16:46.364Z,1007.53
2017-08-19T03:17:41.654Z,1007.47
2017-08-19T03:18:36.173Z,1007.47
2017-08-19T03:19:25.179Z,1007.47
2017-08-19T03:20:25.355Z,1007.46
2017-08-19T03:21:19.472Z,1007.48
2017-08-19T03:22:19.429Z,1007.54
2017-08-19T03:23:14.984Z,1007.53
2017-08-19T03:24:03.760Z,1007.52
2017-08-19T03:24:51.833Z,1007.56
2017-08-19T03:25:40.813Z,1007.58
2017-08-19T03:26:28.820Z,1007.62
2017-08-19T03:27:17.913Z,1007.56
2017-08-19T03:28:05.950Z,1007.58
2017-08-19T03:29:00.039Z,1007.60
2017-08-19T03:29:59.989Z,1007.59
2017-08-19T03:31:00.183Z,1007.62
2017-08-19T03:31:48.149Z,1007.54
2017-08-19T03:32:42.168Z,1007.58
2017-08-19T03:33:30.111Z,1007.57
2017-08-19T03:34:24.234Z,1007.60
2017-08-19T03:35:13.275Z,1007.56
2017-08-19T03:36:07.361Z,1007.54
2017-08-19T03:37:00.923Z,1007.56
2017-08-19T03:37:55.504Z,1007.57
2017-08-19T03:38:44.364Z,1007.62
2017-08-19T03:39:44.094Z,1007.61
2017-08-19T03:40:39.171Z,1007.60
2017-08-19T03:41:33.181Z,1007.55
2017-08-19T03:42:33.536Z,1007.61
2017-08-19T03:43:27.356Z,1007.57
2017-08-19T03:44:22.373Z,1007.60
2017-08-19T03:45:17.321Z,1007.58
2017-08-19T03:46:05.426Z,1007.63
2017-08-19T03:47:00.380Z,1007.63
2017-08-19T03:47:54.841Z,1007.65
2017-08-19T03:48:55.593Z,1007.66
2017-08-19T03:49:55.620Z,1007.66
2017-08-19T03:50:50.147Z,1007.66
2017-08-19T03:51:43.798Z,1007.69
2017-08-19T03:52:43.511Z,1007.69
2017-08-19T03:53:43.942Z,1007.70
2017-08-19T03:54:44.869Z,1007.72
2017-08-19T03:55:38.993Z,1007.74
2017-08-19T03:56:27.756Z,1007.73
2017-08-19T03:57:28.182Z,1007.73
2017-08-19T03:58:16.770Z,1007.78
2017-08-19T03:59:11.863Z,1007.76
2017-08-19T04:00:01.129Z,1007.72
2017-08-19T04:01:00.879Z,1007.73
2017-08-19T04:01:54.851Z,1007.76
2017-08-19T04:02:55.339Z,1007.73
2017-08-19T04:03:49.969Z,1007.75
2017-08-19T04:04:50.221Z,1007.72
2017-08-19T04:05:44.173Z,1007.76
2017-08-19T04:06:38.200Z,1007.71
2017-08-19T04:07:33.424Z,1007.68
2017-08-19T04:08:21.146Z,1007.69
2017-08-19T04:09:21.218Z,1007.66
2017-08-19T04:10:21.101Z,1007.72
2017-08-19T04:11:15.310Z,1007.73
2017-08-19T04:12:15.256Z,1007.73
2017-08-19T04:13:10.343Z,1007.72
2017-08-19T04:14:05.356Z,1007.68
2017-08-19T04:15:11.377Z,1007.68
2017-08-19T04:16:05.739Z,1007.70
2017-08-19T04:16:54.367Z,1007.65
2017-08-19T04:17:49.750Z,1007.69
2017-08-19T04:18:44.490Z,1007.67
2017-08-19T04:19:33.494Z,1007.70
2017-08-19T04:20:22.743Z,1007.70
2017-08-19T04:21:11.651Z,1007.69
2017-08-19T04:22:06.675Z,1007.69
2017-08-19T04:23:01.841Z,1007.73
2017-08-19T04:24:02.905Z,1007.73
2017-08-19T04:24:57.702Z,1007.70
2017-08-19T04:25:57.869Z,1007.72
2017-08-19T04:26:51.929Z,1007.67
2017-08-19T04:27:40.850Z,1007.70
2017-08-19T04:28:41.100Z,1007.67
2017-08-19T04:29:28.949Z,1007.63
2017-08-19T04:30:22.953Z,1007.62
2017-08-19T04:31:17.079Z,1007.74
2017-08-19T04:32:11.014Z,1007.68
2017-08-19T04:33:06.129Z,1007.69
2017-08-19T04:34:00.092Z,1007.71
2017-08-19T04:34:55.197Z,1007.68
2017-08-19T04:35:55.366Z,1007.70
2017-08-19T04:36:55.249Z,1007.73
2017-08-19T04:37:49.300Z,1007.77
2017-08-19T04:38:44.295Z,1007.72
2017-08-19T04:39:44.306Z,1007.69
2017-08-19T04:40:38.632Z,1007.75
2017-08-19T04:41:32.475Z,1007.77
2017-08-19T04:42:26.699Z,1007.78
2017-08-19T04:43:20.532Z,1007.79
2017-08-19T04:44:21.858Z,1007.80
2017-08-19T04:45:21.962Z,1007.84
2017-08-19T04:46:22.090Z,1007.83
2017-08-19T04:47:21.580Z,1007.84
2017-08-19T04:48:21.660Z,1007.84
2017-08-19T04:49:15.626Z,1007.85
2017-08-19T04:50:11.021Z,1007.84
2017-08-19T04:51:04.767Z,1007.86
2017-08-19T04:52:00.206Z,1007.91
2017-08-19T04:52:53.812Z,1007.88
2017-08-19T04:53:41.920Z,1007.91
2017-08-19T04:54:42.885Z,1007.91
2017-08-19T04:55:32.175Z,1007.90
2017-08-19T04:56:27.252Z,1007.91
2017-08-19T04:57:21.469Z,1007.93
2017-08-19T04:58:21.324Z,1007.92
2017-08-19T04:59:16.244Z,1007.97
2017-08-19T05:00:11.155Z,1007.96
2017-08-19T05:01:00.150Z,1007.99
2017-08-19T05:01:55.184Z,1007.99
2017-08-19T05:02:55.246Z,1007.96
2017-08-19T05:03:49.457Z,1008.00
2017-08-19T05:04:49.640Z,1007.98
2017-08-19T05:05:43.683Z,1007.93
2017-08-19T05:06:38.710Z,1007.96
2017-08-19T05:07:38.787Z,1007.95
2017-08-19T05:08:33.672Z,1007.97
2017-08-19T05:09:28.570Z,1007.98
2017-08-19T05:10:23.953Z,1008.02
2017-08-19T05:11:23.542Z,1007.99
2017-08-19T05:12:17.896Z,1007.97
2017-08-19T05:13:06.714Z,1007.99
2017-08-19T05:14:01.992Z,1008.01
2017-08-19T05:14:56.019Z,1008.02
2017-08-19T05:15:55.743Z,1008.00
2017-08-19T05:16:51.091Z,1008.02
2017-08-19T05:17:44.814Z,1007.96
2017-08-19T05:18:45.189Z,1008.05
2017-08-19T05:19:38.940Z,1008.05
2017-08-19T05:20:32.972Z,1008.07
2017-08-19T05:21:27.138Z,1008.09
2017-08-19T05:22:15.095Z,1008.08
2017-08-19T05:23:14.956Z,1008.11
2017-08-19T05:24:10.208Z,1008.12
2017-08-19T05:24:59.141Z,1008.13
2017-08-19T05:25:53.159Z,1008.12
2017-08-19T05:26:48.176Z,1008.12
2017-08-19T05:27:48.232Z,1008.14
2017-08-19T05:28:37.276Z,1008.17
2017-08-19T05:29:32.313Z,1008.07
2017-08-19T05:30:32.854Z,1008.19
2017-08-19T05:31:27.368Z,1008.19
2017-08-19T05:32:21.732Z,1008.19
2017-08-19T05:33:22.598Z,1008.12
2017-08-19T05:34:16.551Z,1008.10
2017-08-19T05:35:10.824Z,1008.09
2017-08-19T05:36:05.530Z,1008.11
2017-08-19T05:36:53.593Z,1008.09
2017-08-19T05:37:42.934Z,1008.11
2017-08-19T05:38:32.118Z,1008.14
2017-08-19T05:39:20.114Z,1008.15
2017-08-19T05:40:09.182Z,1008.11
2017-08-19T05:41:09.934Z,1008.17
2017-08-19T05:42:03.875Z,1008.15
2017-08-19T05:42:57.932Z,1008.17
2017-08-19T05:43:53.358Z,1008.19
2017-08-19T05:44:41.279Z,1008.22
2017-08-19T05:45:35.331Z,1008.25
2017-08-19T05:46:35.553Z,1008.26
2017-08-19T05:47:29.616Z,1008.18
2017-08-19T05:48:29.572Z,1008.21
2017-08-19T05:49:18.669Z,1008.19
2017-08-19T05:50:13.632Z,1008.22
2017-08-19T05:51:13.708Z,1008.15
2017-08-19T05:52:08.869Z,1008.14
2017-08-19T05:53:02.808Z,1008.20
2017-08-19T05:54:02.805Z,1008.10
2017-08-19T05:55:02.888Z,1008.13
2017-08-19T05:55:57.942Z,1008.16
2017-08-19T05:56:59.036Z,1008.09
2017-08-19T05:57:53.938Z,1007.99
2017-08-19T05:58:55.066Z,1007.99
2017-08-19T05:59:50.132Z,1008.03
2017-08-19T06:00:44.128Z,1008.04
2017-08-19T06:01:45.237Z,1007.98
2017-08-19T06:02:51.129Z,1007.96
2017-08-19T06:03:45.329Z,1007.96
2017-08-19T06:04:46.334Z,1007.91
2017-08-19T06:05:40.350Z,1007.92
2017-08-19T06:06:34.425Z,1007.91
2017-08-19T06:07:22.467Z,1007.91
2017-08-19T06:08:10.423Z,1007.94
2017-08-19T06:09:10.518Z,1007.91
2017-08-19T06:10:04.582Z,1007.86
2017-08-19T06:10:59.635Z,1007.85
2017-08-19T06:11:54.667Z,1007.85
2017-08-19T06:12:54.661Z,1007.85
2017-08-19T06:13:48.665Z,1007.87
2017-08-19T06:14:43.828Z,1007.75
2017-08-19T06:15:31.778Z,1007.77
2017-08-19T06:16:20.873Z,1007.83
2017-08-19T06:17:14.923Z,1007.82
2017-08-19T06:18:14.999Z,1007.85
2017-08-19T06:19:08.954Z,1007.85
2017-08-19T06:19:58.104Z,1007.74
2017-08-19T06:20:58.060Z,1007.88
2017-08-19T06:21:47.209Z,1007.88
2017-08-19T06:22:41.254Z,1007.92
2017-08-19T06:23:36.215Z,1007.84
2017-08-19T06:24:31.309Z,1007.92
2017-08-19T06:25:19.420Z,1007.93
2017-08-19T06:26:20.418Z,1007.94
2017-08-19T06:27:14.370Z,1008.05
2017-08-19T06:28:08.547Z,1008.00
2017-08-19T06:29:03.569Z,1008.03
2017-08-19T06:30:03.561Z,1008.03
2017-08-19T06:30:57.590Z,1008.17
2017-08-19T06:31:52.618Z,1008.20
2017-08-19T06:32:52.745Z,1008.21
2017-08-19T06:33:47.647Z,1008.33
2017-08-19T06:34:36.776Z,1008.42
2017-08-19T06:35:36.783Z,1008.44
2017-08-19T06:36:25.933Z,1008.31
2017-08-19T06:37:20.880Z,1008.39
2017-08-19T06:38:15.022Z,1008.33
2017-08-19T06:39:09.036Z,1008.38
2017-08-19T06:39:57.980Z,1008.41
2017-08-19T06:40:47.076Z,1008.35
2017-08-19T06:41:41.247Z,1008.29
2017-08-19T06:42:41.302Z,1008.26
2017-08-19T06:43:35.352Z,1008.28
2017-08-19T06:44:29.306Z,1008.19
2017-08-19T06:45:18.310Z,1008.24
2017-08-19T06:46:12.403Z,1008.32
2017-08-19T06:47:12.486Z,1008.25
2017-08-19T06:48:07.640Z,1008.23
2017-08-19T06:49:01.611Z,1008.21
2017-08-19T06:50:01.702Z,1008.35
2017-08-19T06:51:01.643Z,1008.51
2017-08-19T06:51:56.650Z,1008.54
2017-08-19T06:52:51.817Z,1008.67
2017-08-19T06:53:40.824Z,1008.57
2017-08-19T06:54:29.840Z,1008.48
2017-08-19T06:55:23.836Z,1008.40
2017-08-19T06:56:17.962Z,1008.41
2017-08-19T06:57:06.912Z,1008.43
2017-08-19T06:58:07.087Z,1008.51
2017-08-19T06:58:56.128Z,1008.45
2017-08-19T06:59:45.135Z,1008.47
2017-08-19T07:00:45.207Z,1008.40
2017-08-19T07:01:39.187Z,1008.45
2017-08-19T07:02:33.267Z,1008.46
2017-08-19T07:03:33.402Z,1008.50
2017-08-19T07:04:27.310Z,1008.57
2017-08-19T07:05:27.472Z,1008.48
2017-08-19T07:06:21.362Z,1008.45
2017-08-19T07:07:10.515Z,1008.41
2017-08-19T07:08:11.487Z,1008.37
2017-08-19T07:09:11.616Z,1008.48
2017-08-19T07:10:06.582Z,1008.43
2017-08-19T07:11:00.639Z,1008.40
2017-08-19T07:12:00.752Z,1008.37
2017-08-19T07:12:55.809Z,1008.32
2017-08-19T07:13:50.868Z,1008.37
2017-08-19T07:14:45.929Z,1008.37
2017-08-19T07:15:33.890Z,1008.36
2017-08-19T07:16:28.899Z,1008.37
2017-08-19T07:17:23.971Z,1008.40
2017-08-19T07:18:18.076Z,1008.40
2017-08-19T07:19:13.078Z,1008.60
2017-08-19T07:20:02.137Z,1008.62
2017-08-19T07:20:56.184Z,1008.42
2017-08-19T07:21:45.181Z,1008.30
2017-08-19T07:22:40.293Z,1008.34
2017-08-19T07:23:40.405Z,1008.23
2017-08-19T07:24:34.429Z,1008.25
2017-08-19T07:25:29.457Z,1008.31
2017-08-19T07:26:30.473Z,1008.38
2017-08-19T07:27:24.481Z,1008.38
2017-08-19T07:28:19.593Z,1008.43
2017-08-19T07:29:19.614Z,1008.50
2017-08-19T07:30:13.795Z,1008.50
2017-08-19T07:31:08.726Z,1008.54
2017-08-19T07:32:03.651Z,1008.55
2017-08-19T07:33:04.834Z,1008.51
2017-08-19T07:33:58.797Z,1008.43
2017-08-19T07:34:52.877Z,1008.42
2017-08-19T07:35:52.945Z,1008.28
2017-08-19T07:36:46.965Z,1008.37
2017-08-19T07:37:47.023Z,1008.35
2017-08-19T07:38:36.069Z,1008.42
2017-08-19T07:39:25.013Z,1008.58
2017-08-19T07:40:14.124Z,1008.56
2017-08-19T07:41:09.188Z,1008.47
2017-08-19T07:42:09.221Z,1008.58
2017-08-19T07:43:04.339Z,1008.69
2017-08-19T07:43:59.303Z,1008.59
2017-08-19T07:44:48.342Z,1008.66
2017-08-19T07:45:43.434Z,1008.51
2017-08-19T07:46:43.363Z,1008.59
2017-08-19T07:47:38.522Z,1008.58
2017-08-19T07:48:33.515Z,1008.59
2017-08-19T07:49:27.618Z,1008.61
2017-08-19T07:50:22.590Z,1008.73
2017-08-19T07:51:16.586Z,1008.65
2017-08-19T07:52:10.708Z,1008.66
2017-08-19T07:53:10.743Z,1008.71
2017-08-19T07:54:04.820Z,1008.68
2017-08-19T07:55:05.912Z,1008.69
2017-08-19T07:56:06.920Z,1008.77
2017-08-19T07:57:00.868Z,1008.70
2017-08-19T07:57:54.917Z,1008.69
2017-08-19T07:58:54.992Z,1008.78
2017-08-19T07:59:54.987Z,1008.63
2017-08-19T08:00:50.011Z,1008.69
2017-08-19T08:01:39.078Z,1008.63
2017-08-19T08:02:34.184Z,1008.70
2017-08-19T08:03:23.263Z,1008.74
2017-08-19T08:04:12.234Z,1008.57
2017-08-19T08:05:06.315Z,1008.71
2017-08-19T08:06:06.340Z,1008.70
2017-08-19T08:07:01.317Z,1008.64
2017-08-19T08:07:56.478Z,1008.73
2017-08-19T08:08:50.520Z,1008.62
2017-08-19T08:09:50.452Z,1008.81
2017-08-19T08:10:39.659Z,1008.77
2017-08-19T08:11:33.622Z,1008.75
2017-08-19T08:12:27.624Z,1008.60
2017-08-19T08:13:21.767Z,1008.74
2017-08-19T08:14:16.754Z,1008.85
2017-08-19T08:15:10.872Z,1008.82
2017-08-19T08:16:10.973Z,1008.76
2017-08-19T08:16:59.858Z,1008.85
2017-08-19T08:17:54.950Z,1008.83
2017-08-19T08:18:50.034Z,1008.93
2017-08-19T08:19:44.069Z,1008.77
2017-08-19T08:20:33.118Z,1008.87
2017-08-19T08:21:27.172Z,1009.00
2017-08-19T08:22:16.219Z,1008.91
2017-08-19T08:23:10.302Z,1008.90
2017-08-19T08:24:10.303Z,1009.03
2017-08-19T08:24:59.305Z,1009.02
2017-08-19T08:25:53.402Z,1008.92
2017-08-19T08:26:53.364Z,1008.78
2017-08-19T08:27:47.460Z,1008.65
2017-08-19T08:28:47.509Z,1008.92
2017-08-19T08:29:41.583Z,1008.82
2017-08-19T08:30:42.644Z,1008.98
2017-08-19T08:31:31.626Z,1008.91
2017-08-19T08:32:31.700Z,1008.99
2017-08-19T08:33:26.730Z,1008.94
2017-08-19T08:34:21.856Z,1008.97
2017-08-19T08:35:21.824Z,1009.13
2017-08-19T08:36:10.859Z,1008.84
2017-08-19T08:37:00.047Z,1008.96
2017-08-19T08:37:54.994Z,1009.13
2017-08-19T08:38:54.991Z,1009.16
2017-08-19T08:39:44.092Z,1009.26
2017-08-19T08:40:38.109Z,1009.07
2017-08-19T08:41:38.009Z,1009.20
2017-08-19T08:42:32.113Z,1009.16
2017-08-19T08:43:26.225Z,1009.24
2017-08-19T08:44:21.307Z,1009.26
2017-08-19T08:45:10.301Z,1009.34
2017-08-19T08:45:59.414Z,1009.07
2017-08-19T08:46:48.400Z,1009.13
2017-08-19T08:47:43.445Z,1009.17
2017-08-19T08:48:49.523Z,1009.20
2017-08-19T08:49:44.449Z,1009.21
2017-08-19T08:50:38.584Z,1009.18
2017-08-19T08:51:32.632Z,1009.22
2017-08-19T08:52:21.667Z,1009.15
2017-08-19T08:53:15.877Z,1009.10
2017-08-19T08:54:10.738Z,1009.01
2017-08-19T08:55:05.798Z,1009.07
2017-08-19T08:55:53.881Z,1009.07
2017-08-19T08:56:53.933Z,1009.12
2017-08-19T08:57:47.898Z,1009.26
2017-08-19T08:58:48.104Z,1009.29
2017-08-19T08:59:47.976Z,1009.16
2017-08-19T09:00:37.077Z,1009.15
2017-08-19T09:01:25.202Z,1009.16
2017-08-19T09:02:25.151Z,1009.07
2017-08-19T09:03:14.165Z,1009.18
2017-08-19T09:04:20.265Z,1008.99
2017-08-19T09:05:15.196Z,1009.16
2017-08-19T09:06:09.409Z,1008.94
2017-08-19T09:07:04.359Z,1008.90
2017-08-19T09:07:58.410Z,1009.06
2017-08-19T09:08:53.522Z,1008.91
2017-08-19T09:09:41.683Z,1008.83
2017-08-19T09:10:35.568Z,1009.17
2017-08-19T09:11:24.684Z,1009.27
2017-08-19T09:12:18.676Z,1009.12
2017-08-19T09:13:12.712Z,1008.94
2017-08-19T09:14:07.745Z,1009.12
2017-08-19T09:15:01.855Z,1008.96
2017-08-19T09:15:56.816Z,1008.97
2017-08-19T09:16:45.903Z,1009.32
2017-08-19T09:17:40.068Z,1009.04
2017-08-19T09:18:40.117Z,1009.12
2017-08-19T09:19:35.173Z,1009.04
2017-08-19T09:20:29.050Z,1009.22
2017-08-19T09:21:29.156Z,1009.00
2017-08-19T09:22:24.234Z,1009.01
2017-08-19T09:23:19.235Z,1009.18
2017-08-19T09:24:13.376Z,1008.94
2017-08-19T09:25:07.382Z,1009.08
2017-08-19T09:26:02.459Z,1009.29
2017-08-19T09:27:02.484Z,1009.12
2017-08-19T09:27:56.614Z,1009.09
2017-08-19T09:28:56.649Z,1009.04
2017-08-19T09:29:51.694Z,1009.01
2017-08-19T09:30:45.639Z,1009.02
2017-08-19T09:31:39.806Z,1009.12
2017-08-19T09:32:34.791Z,1009.08
2017-08-19T09:33:22.882Z,1009.09
2017-08-19T09:34:22.921Z,1009.06
2017-08-19T09:35:18.004Z,1009.22
2017-08-19T09:36:12.073Z,1009.34
2017-08-19T09:37:06.995Z,1009.27
2017-08-19T09:38:02.142Z,1009.19
2017-08-19T09:38:51.186Z,1009.15
2017-08-19T09:39:45.217Z,1009.15
2017-08-19T09:40:39.322Z,1009.22
2017-08-19T09:41:34.350Z,1009.30
2017-08-19T09:42:28.399Z,1009.35
2017-08-19T09:43:16.531Z,1009.38
2017-08-19T09:44:10.437Z,1009.43
2017-08-19T09:45:04.453Z,1009.26
2017-08-19T09:45:59.540Z,1009.35
2017-08-19T09:46:59.531Z,1009.32
2017-08-19T09:47:53.590Z,1009.19
2017-08-19T09:48:48.707Z,1009.24
2017-08-19T09:49:42.752Z,1009.33
2017-08-19T09:50:36.813Z,1009.19
2017-08-19T09:51:36.794Z,1009.26
2017-08-19T09:52:30.955Z,1009.24
2017-08-19T09:53:24.846Z,1009.44
2017-08-19T09:54:19.076Z,1009.37
2017-08-19T09:55:13.078Z,1009.51
2017-08-19T09:56:08.099Z,1009.30
2017-08-19T09:57:03.023Z,1009.28
2017-08-19T09:57:58.183Z,1009.20
2017-08-19T09:58:52.235Z,1009.44
2017-08-19T09:59:46.311Z,1009.59
2017-08-19T10:00:46.359Z,1009.60
2017-08-19T10:01:41.318Z,1009.34
2017-08-19T10:02:35.433Z,1009.46
2017-08-19T10:03:30.474Z,1009.58
2017-08-19T10:04:31.471Z,1009.62
2017-08-19T10:05:26.550Z,1009.43
2017-08-19T10:06:20.567Z,1009.47
2017-08-19T10:07:14.628Z,1009.59
2017-08-19T10:08:14.638Z,1009.69
2017-08-19T10:09:03.674Z,1009.76
2017-08-19T10:09:57.712Z,1009.75
2017-08-19T10:10:52.859Z,1009.75
2017-08-19T10:11:46.882Z,1009.70
2017-08-19T10:12:41.000Z,1009.72
2017-08-19T10:13:35.977Z,1009.75
2017-08-19T10:14:30.012Z,1009.86
2017-08-19T10:15:18.102Z,1009.85
2017-08-19T10:16:12.169Z,1009.72
2017-08-19T10:17:06.215Z,1009.66
2017-08-19T10:18:01.252Z,1009.56
2017-08-19T10:19:01.390Z,1009.51
2017-08-19T10:19:55.388Z,1009.78
2017-08-19T10:20:49.428Z,1009.54
2017-08-19T10:21:44.425Z,1009.53
2017-08-19T10:22:38.663Z,1009.57
2017-08-19T10:23:38.569Z,1009.71
2017-08-19T10:24:32.653Z,1009.61
2017-08-19T10:25:26.774Z,1009.80
2017-08-19T10:26:20.772Z,1009.91
2017-08-19T10:27:15.836Z,1009.86
2017-08-19T10:28:10.922Z,1009.83
2017-08-19T10:29:05.996Z,1010.04
2017-08-19T10:30:00.967Z,1009.83
2017-08-19T10:30:55.989Z,1009.86
2017-08-19T10:31:45.069Z,1009.75
2017-08-19T10:32:39.156Z,1009.70
2017-08-19T10:33:34.142Z,1009.69
2017-08-19T10:34:29.287Z,1009.42
2017-08-19T10:35:23.274Z,1009.54
2017-08-19T10:36:12.323Z,1009.49
2017-08-19T10:37:07.366Z,1009.46
2017-08-19T10:38:02.391Z,1009.41
2017-08-19T10:38:56.430Z,1009.26
2017-08-19T10:39:50.514Z,1009.34
2017-08-19T10:40:44.602Z,1009.34
2017-08-19T10:41:38.789Z,1009.37
2017-08-19T10:42:27.797Z,1009.45
2017-08-19T10:43:21.740Z,1009.45
2017-08-19T10:44:10.842Z,1009.24
2017-08-19T10:44:59.854Z,1009.38
2017-08-19T10:45:48.988Z,1009.37
2017-08-19T10:46:37.055Z,1009.08
2017-08-19T10:47:38.282Z,1009.37
2017-08-19T10:48:38.152Z,1009.36
2017-08-19T10:49:27.321Z,1009.41
2017-08-19T10:50:27.236Z,1009.18
2017-08-19T10:51:21.271Z,1009.37
2017-08-19T10:52:16.287Z,1009.43
2017-08-19T10:53:11.407Z,1009.42
2017-08-19T10:54:00.473Z,1009.43
2017-08-19T10:55:00.581Z,1009.15
2017-08-19T10:55:54.581Z,1009.31
2017-08-19T10:56:48.533Z,1009.30
2017-08-19T10:57:36.714Z,1009.43
2017-08-19T10:58:31.822Z,1009.41
2017-08-19T10:59:31.769Z,1009.55